Time;durP1;ratioP1;P1;durP2;ratioP2;P2;SDS_P1;SDS_P2;PMS_P1;PMS_P2;Temp;Humidity;BMP_temperature;BMP_pressure;BME280_temperature;BME280_humidity;BME280_pressure;Samples;Min_cycle;Max_cycle;Signal;HPM_P1;HPM_P2
2023/08/03 00:00:53;;;;;;;0.40;0.10;;;;;;;18.29;96.50;99067.56;7350290;19;20022;-67
2023/08/03 00:03:20;;;;;;;0.88;0.20;;;;;;;18.29;96.70;99072.91;7358208;19;20017;-66
2023/08/03 00:05:47;;;;;;;0.50;0.10;;;;;;;18.30;97.58;99065.72;7357299;19;20015;-66
2023/08/03 00:08:14;;;;;;;1.98;0.22;;;;;;;18.26;97.83;99088.56;7358956;19;20050;-67
2023/08/03 00:10:42;;;;;;;1.23;0.30;;;;;;;18.21;99.11;99086.66;7350889;19;20365;-67
2023/08/03 00:13:09;;;;;;;1.20;0.30;;;;;;;18.20;100.00;99084.22;7359747;19;20379;-67
2023/08/03 00:15:36;;;;;;;0.93;0.20;;;;;;;18.15;100.00;99090.28;7355829;19;20030;-67
2023/08/03 00:18:03;;;;;;;1.17;0.40;;;;;;;18.09;100.00;99093.94;7355224;19;20101;-67
2023/08/03 00:20:30;;;;;;;0.30;0.20;;;;;;;18.06;100.00;99105.06;7358043;19;20018;-66
2023/08/03 00:22:57;;;;;;;0.55;0.20;;;;;;;17.97;100.00;99106.53;7359204;19;20044;-67
2023/08/03 00:25:24;;;;;;;2.88;0.30;;;;;;;17.95;100.00;99111.28;7353898;19;20375;-65
2023/08/03 00:27:52;;;;;;;0.70;0.20;;;;;;;17.89;100.00;99107.75;7359189;19;20014;-65
2023/08/03 00:30:19;;;;;;;0.45;0.20;;;;;;;17.82;100.00;99123.09;7355883;19;20023;-66
2023/08/03 00:32:47;;;;;;;0.40;0.20;;;;;;;17.81;100.00;99126.78;7368468;19;20608;-66
2023/08/03 00:35:14;;;;;;;1.42;0.35;;;;;;;17.77;100.00;99132.84;7361980;19;20038;-65
2023/08/03 00:37:41;;;;;;;0.63;0.20;;;;;;;17.74;100.00;99128.78;7366150;19;20031;-66
2023/08/03 00:40:08;;;;;;;2.72;0.30;;;;;;;17.75;100.00;99132.25;7359267;19;20019;-65
2023/08/03 00:42:35;;;;;;;1.00;0.40;;;;;;;17.73;100.00;99139.66;7365856;19;20493;-65
2023/08/03 00:45:03;;;;;;;1.23;0.38;;;;;;;17.72;100.00;99135.41;7362226;19;20035;-67
2023/08/03 00:47:31;;;;;;;0.63;0.30;;;;;;;17.70;100.00;99143.63;7366789;19;20014;-65
2023/08/03 00:49:58;;;;;;;2.28;0.30;;;;;;;17.71;100.00;99147.09;7358050;19;20014;-65
2023/08/03 00:52:25;;;;;;;1.17;0.40;;;;;;;17.69;100.00;99144.66;7364974;19;20034;-66
2023/08/03 00:54:52;;;;;;;1.35;0.25;;;;;;;17.72;100.00;99154.03;7359218;19;20419;-66
2023/08/03 00:57:19;;;;;;;2.38;0.30;;;;;;;17.69;100.00;99151.84;7364648;19;20412;-65
2023/08/03 00:59:47;;;;;;;1.50;0.30;;;;;;;17.68;100.00;99152.88;7363235;19;20022;-66
2023/08/03 01:02:14;;;;;;;1.30;0.30;;;;;;;17.65;100.00;99156.84;7363228;19;20018;-66
2023/08/03 01:04:41;;;;;;;1.85;0.30;;;;;;;17.65;100.00;99172.81;7360229;19;20386;-67
2023/08/03 01:07:08;;;;;;;1.65;0.32;;;;;;;17.65;100.00;99175.47;7362632;19;20444;-67
2023/08/03 01:09:44;;;;;;;1.30;0.30;;;;;;;17.66;100.00;99178.94;7358875;19;20062;-65
2023/08/03 01:12:12;;;;;;;0.90;0.40;;;;;;;17.69;100.00;99178.44;7358832;19;21010;-67
2023/08/03 01:14:39;;;;;;;1.40;0.30;;;;;;;17.70;100.00;99188.84;7362307;19;20034;-67
2023/08/03 01:17:06;;;;;;;0.68;0.40;;;;;;;17.74;100.00;99194.50;7363246;19;20018;-66
2023/08/03 01:19:33;;;;;;;0.85;0.30;;;;;;;17.72;100.00;99200.09;7358801;19;20482;-66
2023/08/03 01:22:13;;;;;;;3.78;0.40;;;;;;;17.72;100.00;99208.06;7362112;19;20943;-65
2023/08/03 01:24:43;;;;;;;3.17;0.40;;;;;;;17.74;100.00;99218.44;7358363;19;20014;-66
2023/08/03 01:27:10;;;;;;;2.05;0.40;;;;;;;17.74;100.00;99221.09;7363850;19;20029;-66
2023/08/03 01:29:37;;;;;;;2.88;0.73;;;;;;;17.74;100.00;99229.09;7360674;19;20010;-66
2023/08/03 01:32:05;;;;;;;0.93;0.30;;;;;;;17.76;100.00;99235.81;7361161;19;20015;-66
2023/08/03 01:34:32;;;;;;;1.65;0.50;;;;;;;17.78;100.00;99239.00;7363332;19;20019;-66
2023/08/03 01:36:59;;;;;;;2.42;0.50;;;;;;;17.79;100.00;99242.47;7362706;19;20035;-65
2023/08/03 01:39:26;;;;;;;2.67;0.43;;;;;;;17.77;100.00;99245.41;7357566;19;20014;-66
2023/08/03 01:41:53;;;;;;;3.00;0.68;;;;;;;17.77;100.00;99255.25;7359295;19;20341;-66
2023/08/03 01:44:26;;;;;;;2.20;0.50;;;;;;;17.79;100.00;99253.13;7357886;19;20052;-66
2023/08/03 01:46:56;;;;;;;1.42;0.55;;;;;;;17.77;100.00;99253.38;7361687;19;20018;-67
2023/08/03 01:49:24;;;;;;;2.65;0.50;;;;;;;17.77;100.00;99258.72;7360598;19;20018;-69
2023/08/03 01:51:51;;;;;;;3.17;0.60;;;;;;;17.79;100.00;99263.78;7362355;19;20037;-66
2023/08/03 01:54:19;;;;;;;2.20;0.60;;;;;;;17.81;100.00;99270.47;7360318;19;20025;-69
2023/08/03 01:56:46;;;;;;;4.88;0.60;;;;;;;17.83;100.00;99272.88;7362617;19;20021;-67
2023/08/03 01:59:13;;;;;;;3.78;0.80;;;;;;;17.83;100.00;99281.69;7359594;19;20019;-66
2023/08/03 02:01:40;;;;;;;1.75;0.60;;;;;;;17.85;100.00;99276.94;7363173;19;20044;-65
2023/08/03 02:04:08;;;;;;;1.92;0.60;;;;;;;17.85;100.00;99292.91;7359736;19;20011;-67
2023/08/03 02:06:36;;;;;;;4.13;0.80;;;;;;;17.83;100.00;99305.63;7363628;19;20016;-66
2023/08/03 02:09:04;;;;;;;5.15;0.80;;;;;;;17.83;100.00;99302.97;7354061;19;20018;-65
2023/08/03 02:11:31;;;;;;;7.15;1.00;;;;;;;17.82;100.00;99303.22;7361763;19;20046;-66
2023/08/03 02:13:58;;;;;;;4.57;1.10;;;;;;;17.82;100.00;99312.03;7360907;19;20090;-65
2023/08/03 02:16:25;;;;;;;3.80;0.95;;;;;;;17.77;100.00;99309.25;7363076;19;20423;-65
2023/08/03 02:18:52;;;;;;;5.15;1.00;;;;;;;17.77;100.00;99319.09;7357483;19;20051;-66
2023/08/03 02:21:19;;;;;;;4.82;1.00;;;;;;;17.75;100.00;99324.66;7360552;19;20046;-66
2023/08/03 02:23:46;;;;;;;2.67;0.98;;;;;;;17.74;100.00;99331.00;7356567;19;20086;-66
2023/08/03 02:26:14;;;;;;;4.00;1.10;;;;;;;17.73;100.00;99331.22;7359639;19;20026;-66
2023/08/03 02:28:41;;;;;;;3.42;1.00;;;;;;;17.74;100.00;99335.50;7360602;19;20025;-65
2023/08/03 02:31:08;;;;;;;4.03;1.15;;;;;;;17.77;100.00;99348.38;7361787;19;20021;-66
2023/08/03 02:33:35;;;;;;;4.97;1.23;;;;;;;17.77;100.00;99340.38;7358321;19;20022;-67
2023/08/03 02:36:02;;;;;;;4.78;1.00;;;;;;;17.75;100.00;99347.78;7361941;19;20721;-66
2023/08/03 02:38:30;;;;;;;4.03;1.08;;;;;;;17.75;100.00;99353.91;7358544;19;20043;-67
2023/08/03 02:40:57;;;;;;;5.25;0.85;;;;;;;17.78;100.00;99355.28;7355678;19;20052;-66
2023/08/03 02:43:27;;;;;;;3.42;0.90;;;;;;;17.78;100.00;99355.28;7361139;19;20010;-66
2023/08/03 02:45:54;;;;;;;2.72;0.90;;;;;;;17.80;100.00;99359.34;7356984;19;20370;-66
2023/08/03 02:48:21;;;;;;;4.53;0.98;;;;;;;17.80;100.00;99366.50;7359333;19;20022;-66
2023/08/03 02:50:48;;;;;;;2.92;1.00;;;;;;;17.79;99.79;99370.22;7359944;19;20290;-65
2023/08/03 02:53:15;;;;;;;6.18;2.10;;;;;;;17.78;99.85;99371.25;7362696;19;20023;-66
2023/08/03 02:55:42;;;;;;;4.18;0.63;;;;;;;17.78;100.00;99373.91;7355770;19;20060;-66
2023/08/03 02:58:09;;;;;;;5.78;1.42;;;;;;;17.76;100.00;99379.50;7360981;19;20642;-67
2023/08/03 03:00:36;;;;;;;4.80;0.90;;;;;;;17.74;99.84;99384.22;7358617;19;20384;-66
2023/08/03 03:03:03;;;;;;;7.38;1.33;;;;;;;17.76;99.76;99384.00;7360908;19;20478;-67
2023/08/03 03:05:31;;;;;;;1.23;0.52;;;;;;;17.76;99.43;99391.97;7360151;19;20479;-66
2023/08/03 03:07:58;;;;;;;3.30;0.80;;;;;;;17.74;99.50;99389.53;7362247;19;20780;-68
2023/08/03 03:10:25;;;;;;;3.88;0.70;;;;;;;17.73;99.04;99406.53;7357959;19;20089;-66
2023/08/03 03:12:52;;;;;;;4.28;0.70;;;;;;;17.72;98.47;99412.94;7361213;19;20086;-65
2023/08/03 03:15:19;;;;;;;3.78;0.68;;;;;;;17.71;98.70;99416.63;7358568;19;20014;-66
2023/08/03 03:17:46;;;;;;;7.00;0.70;;;;;;;17.70;98.20;99425.66;7361561;19;20139;-66
2023/08/03 03:20:13;;;;;;;3.95;0.80;;;;;;;17.66;97.51;99427.16;7355171;19;20015;-66
2023/08/03 03:22:40;;;;;;;5.25;0.98;;;;;;;17.65;97.91;99422.88;7359033;19;20026;-66
2023/08/03 03:25:07;;;;;;;4.13;0.60;;;;;;;17.66;98.24;99431.69;7354120;19;20431;-66
2023/08/03 03:27:34;;;;;;;5.40;0.70;;;;;;;17.64;97.98;99431.91;7361226;19;20518;-66
2023/08/03 03:30:01;;;;;;;2.65;0.70;;;;;;;17.65;97.98;99443.34;7358582;19;21067;-66
2023/08/03 03:32:28;;;;;;;6.88;0.65;;;;;;;17.64;98.39;99445.19;7358480;19;20530;-66
2023/08/03 03:34:56;;;;;;;3.28;0.50;;;;;;;17.67;98.28;99442.09;7358093;19;20025;-66
2023/08/03 03:37:23;;;;;;;3.60;0.60;;;;;;;17.68;97.35;99449.00;7358797;19;20046;-67
2023/08/03 03:39:50;;;;;;;2.28;0.60;;;;;;;17.64;97.13;99453.19;7350217;19;20034;-67
2023/08/03 03:42:17;;;;;;;8.02;0.95;;;;;;;17.66;97.47;99461.75;7360320;19;20014;-66
2023/08/03 03:44:44;;;;;;;3.92;0.63;;;;;;;17.64;96.82;99468.34;7355678;19;20015;-66
2023/08/03 03:47:11;;;;;;;4.35;0.70;;;;;;;17.59;97.06;99469.03;7359149;19;20018;-66
2023/08/03 03:49:42;;;;;;;4.50;0.60;;;;;;;17.53;97.06;99492.00;7355566;19;21899;-66
2023/08/03 03:52:10;;;;;;;3.75;0.55;;;;;;;17.51;97.38;99480.81;7354005;19;20006;-66
2023/08/03 03:54:36;;;;;;;4.32;0.50;;;;;;;17.52;97.57;99494.94;7353844;19;20014;-66
2023/08/03 03:57:04;;;;;;;5.65;0.70;;;;;;;17.52;97.25;99502.91;7357989;19;20019;-65
2023/08/03 03:59:31;;;;;;;3.90;0.60;;;;;;;17.52;97.88;99509.00;7357710;19;20006;-65
2023/08/03 04:01:58;;;;;;;4.35;0.68;;;;;;;17.53;97.12;99513.28;7358577;19;20014;-66
2023/08/03 04:04:25;;;;;;;6.45;0.82;;;;;;;17.51;96.76;99518.06;7357985;19;21604;-66
2023/08/03 04:06:54;;;;;;;3.65;0.50;;;;;;;17.45;96.68;99523.47;7366004;19;20037;-69
2023/08/03 04:09:21;;;;;;;3.28;0.80;;;;;;;17.45;97.47;99528.78;7363051;19;20052;-66
2023/08/03 04:11:57;;;;;;;5.03;0.73;;;;;;;17.44;96.56;99525.31;7366185;19;20023;-66
2023/08/03 04:14:24;;;;;;;2.60;0.40;;;;;;;17.43;96.86;99536.19;7364527;19;20010;-66
2023/08/03 04:16:52;;;;;;;2.42;0.60;;;;;;;17.41;96.35;99540.94;7366725;19;20480;-65
2023/08/03 04:19:19;;;;;;;10.23;1.45;;;;;;;17.38;96.13;99552.00;7363693;19;20097;-65
2023/08/03 04:21:56;;;;;;;4.20;0.80;;;;;;;17.38;96.01;99557.34;7360753;19;20619;-67
2023/08/03 04:24:23;;;;;;;3.45;0.80;;;;;;;17.37;96.23;99553.06;7360699;19;20086;-66
2023/08/03 04:26:50;;;;;;;5.00;0.50;;;;;;;17.34;95.79;99566.81;7364993;19;20516;-66
2023/08/03 04:29:17;;;;;;;1.60;0.50;;;;;;;17.35;95.12;99571.09;7363848;19;20027;-65
2023/08/03 04:31:52;;;;;;;4.60;0.63;;;;;;;17.38;94.16;99583.94;7363166;19;20102;-65
2023/08/03 04:34:19;;;;;;;6.72;0.55;;;;;;;17.34;93.65;99580.09;7365154;19;20013;-66
2023/08/03 04:36:47;;;;;;;3.90;0.50;;;;;;;17.37;93.47;99590.31;7365477;19;20003;-66
2023/08/03 04:39:14;;;;;;;6.22;0.60;;;;;;;17.37;93.00;99596.41;7359650;19;20091;-66
2023/08/03 04:41:44;;;;;;;4.25;0.47;;;;;;;17.35;92.06;99601.16;7363327;19;20021;-65
2023/08/03 04:44:18;;;;;;;3.17;0.40;;;;;;;17.31;93.04;99605.31;7361745;19;20676;-66
2023/08/03 04:46:45;;;;;;;4.85;0.88;;;;;;;17.33;93.45;99610.38;7362701;19;20010;-66
2023/08/03 04:49:13;;;;;;;6.60;1.05;;;;;;;17.33;92.76;99615.72;7364801;19;20014;-66
2023/08/03 04:51:40;;;;;;;6.03;0.98;;;;;;;17.33;92.87;99619.19;7364191;19;20018;-66
2023/08/03 04:54:08;;;;;;;5.15;1.77;;;;;;;17.32;92.66;99625.53;7359318;19;20034;-65
2023/08/03 04:56:35;;;;;;;3.60;0.60;;;;;;;17.28;92.68;99629.69;7362931;19;20047;-65
2023/08/03 04:59:02;;;;;;;7.95;0.80;;;;;;;17.28;92.65;99639.50;7362642;19;20034;-65
2023/08/03 05:01:29;;;;;;;3.75;0.50;;;;;;;17.30;93.17;99642.75;7363503;19;20634;-66
2023/08/03 05:03:58;;;;;;;4.85;0.60;;;;;;;17.31;92.62;99639.88;7363986;19;20834;-66
2023/08/03 05:06:25;;;;;;;8.80;0.60;;;;;;;17.29;92.06;99654.44;7365743;19;20616;-66
2023/08/03 05:08:53;;;;;;;3.45;0.50;;;;;;;17.25;91.78;99662.06;7363628;19;20439;-65
2023/08/03 05:11:20;;;;;;;5.25;0.60;;;;;;;17.20;92.04;99671.75;7361711;19;20006;-65
2023/08/03 05:13:46;;;;;;;6.78;0.60;;;;;;;17.16;92.34;99667.91;7363661;19;20021;-66
2023/08/03 05:16:13;;;;;;;5.10;0.65;;;;;;;17.16;92.42;99667.91;7361790;19;20018;-66
2023/08/03 05:18:40;;;;;;;3.08;0.60;;;;;;;17.16;92.52;99676.69;7363250;19;20026;-65
2023/08/03 05:21:07;;;;;;;3.13;0.52;;;;;;;17.15;92.61;99679.56;7362095;19;20021;-65
2023/08/03 05:23:34;;;;;;;1.48;0.40;;;;;;;17.12;92.20;99675.50;7359694;19;20434;-66
2023/08/03 05:26:02;;;;;;;5.38;0.57;;;;;;;17.13;91.38;99684.28;7356645;19;20014;-66
2023/08/03 05:28:28;;;;;;;5.55;0.70;;;;;;;17.10;92.11;99688.22;7359961;19;20033;-65
2023/08/03 05:30:55;;;;;;;6.53;0.68;;;;;;;17.07;91.50;99692.13;7362705;19;20113;-66
2023/08/03 05:33:23;;;;;;;4.40;0.50;;;;;;;17.04;92.08;99683.78;7363231;19;20631;-66
2023/08/03 05:35:50;;;;;;;5.07;1.45;;;;;;;17.02;92.19;99693.81;7363685;19;20055;-66
2023/08/03 05:38:17;;;;;;;7.57;0.80;;;;;;;17.00;91.95;99694.06;7360719;19;20031;-66
2023/08/03 05:40:44;;;;;;;6.35;0.73;;;;;;;16.99;91.51;99702.25;7359628;19;21791;-65
2023/08/03 05:43:14;;;;;;;5.68;0.80;;;;;;;16.95;91.46;99706.41;7362829;19;20034;-65
2023/08/03 05:45:47;;;;;;;5.90;0.80;;;;;;;16.95;91.57;99698.41;7360262;19;20614;-65
2023/08/03 05:48:19;;;;;;;5.97;0.50;;;;;;;16.96;92.01;99708.84;7363842;19;20013;-66
2023/08/03 05:50:52;;;;;;;5.22;0.70;;;;;;;16.96;91.94;99710.69;7354968;19;20018;-65
2023/08/03 05:53:19;;;;;;;;;;;;;;;17.01;91.60;99719.63;7365000;19;20524;-67
2023/08/03 05:55:46;;;;;;;7.97;0.80;;;;;;;16.97;91.69;99723.72;7356095;19;20840;-67
2023/08/03 05:58:35;;;;;;;5.35;0.50;;;;;;;16.98;91.84;99720.03;7362001;19;20010;-66
2023/08/03 06:01:03;;;;;;;6.70;0.55;;;;;;;17.00;91.73;99731.28;7360873;19;20022;-67
2023/08/03 06:03:33;;;;;;;17.35;2.25;;;;;;;17.00;91.64;99738.44;7362179;19;20030;-65
2023/08/03 06:06:03;;;;;;;7.75;0.98;;;;;;;17.04;91.56;99740.44;7360947;19;20051;-67
2023/08/03 06:08:30;;;;;;;4.03;0.80;;;;;;;17.10;91.11;99749.38;7360721;19;20021;-65
2023/08/03 06:11:02;;;;;;;3.85;1.00;;;;;;;17.10;91.30;99754.69;7358193;19;20348;-65
2023/08/03 06:13:33;;;;;;;;;;;;;;;17.13;90.59;99750.75;7362332;19;20014;-65
2023/08/03 06:16:11;;;;;;;6.28;0.80;;;;;;;17.13;91.15;99759.53;7358379;19;19934;-65
2023/08/03 06:18:46;;;;;;;4.75;0.70;;;;;;;17.16;90.76;99759.13;7359742;19;20018;-65
2023/08/03 06:21:14;;;;;;;2.63;0.60;;;;;;;17.16;90.88;99760.97;7363207;19;20753;-66
2023/08/03 06:23:45;;;;;;;4.28;0.90;;;;;;;17.15;90.04;99764.66;7357690;19;20021;-66
2023/08/03 06:26:14;;;;;;;2.72;0.50;;;;;;;17.20;90.74;99778.91;7356189;19;20626;-66
2023/08/03 06:28:42;;;;;;;5.95;0.95;;;;;;;17.31;89.83;99780.81;7361333;19;20912;-66
2023/08/03 06:31:18;;;;;;;7.35;0.90;;;;;;;17.43;90.28;99778.22;7361157;19;20086;-65
2023/08/03 06:33:47;;;;;;;3.22;0.50;;;;;;;17.44;88.90;99785.16;7358765;19;20834;-66
2023/08/03 06:36:25;;;;;;;3.25;0.70;;;;;;;17.48;88.41;99787.16;7358993;19;20014;-65
2023/08/03 06:38:52;;;;;;;4.65;0.65;;;;;;;17.53;87.21;99794.44;7357946;19;20673;-65
2023/08/03 06:41:22;;;;;;;4.53;0.55;;;;;;;17.60;86.80;99797.06;7358120;19;20014;-65
2023/08/03 06:43:51;;;;;;;3.88;0.50;;;;;;;17.57;85.43;99795.66;7360037;19;20031;-66
2023/08/03 06:46:18;;;;;;;2.78;0.50;;;;;;;17.54;85.12;99796.91;7353304;19;20018;-65
2023/08/03 06:48:45;;;;;;;8.85;1.85;;;;;;;17.54;85.55;99804.06;7360346;19;20046;-66
2023/08/03 06:51:12;;;;;;;4.47;0.50;;;;;;;17.58;85.16;99807.91;7358388;19;20502;-65
2023/08/03 06:53:40;;;;;;;3.38;0.55;;;;;;;17.54;85.43;99806.72;7359111;19;20607;-66
2023/08/03 06:56:07;;;;;;;2.97;0.50;;;;;;;17.55;85.98;99808.34;7359020;19;20044;-65
2023/08/03 06:58:34;;;;;;;8.52;1.00;;;;;;;17.60;84.91;99818.34;7359983;19;20366;-64
2023/08/03 07:01:01;;;;;;;2.10;0.50;;;;;;;17.60;85.17;99821.03;7359352;19;20097;-66
2023/08/03 07:03:28;;;;;;;4.18;0.60;;;;;;;17.61;86.13;99820.81;7360551;19;20023;-65
2023/08/03 07:05:57;;;;;;;5.25;0.60;;;;;;;17.62;85.85;99819.78;7357363;19;20044;-68
2023/08/03 07:08:24;;;;;;;2.20;0.50;;;;;;;17.64;86.29;99830.19;7358563;19;20014;-66
2023/08/03 07:10:51;;;;;;;2.53;0.40;;;;;;;17.63;85.44;99845.31;7353764;19;20014;-66
2023/08/03 07:13:18;;;;;;;3.75;0.55;;;;;;;17.64;83.93;99838.97;7359149;19;20039;-66
2023/08/03 07:15:45;;;;;;;3.38;0.50;;;;;;;17.65;83.92;99842.44;7359796;19;20056;-66
2023/08/03 07:18:12;;;;;;;5.28;0.88;;;;;;;17.72;84.27;99852.00;7359859;19;20014;-67
2023/08/03 07:20:39;;;;;;;3.40;0.50;;;;;;;17.74;84.02;99865.06;7359702;19;20043;-67
2023/08/03 07:23:07;;;;;;;7.13;0.55;;;;;;;17.75;84.69;99864.84;7360947;19;20038;-65
2023/08/03 07:25:34;;;;;;;5.28;0.60;;;;;;;17.77;84.24;99870.75;7353957;19;20677;-65
2023/08/03 07:28:02;;;;;;;7.95;0.68;;;;;;;17.79;84.02;99874.00;7361202;19;20010;-66
2023/08/03 07:30:29;;;;;;;3.75;0.60;;;;;;;17.74;81.66;99876.50;7356583;19;20570;-66
2023/08/03 07:32:59;;;;;;;3.50;1.05;;;;;;;17.71;82.60;99895.59;7357826;19;20138;-66
2023/08/03 07:35:26;;;;;;;3.63;0.73;;;;;;;17.69;82.87;99891.50;7355190;19;20015;-66
2023/08/03 07:37:53;;;;;;;3.15;0.50;;;;;;;17.68;82.47;99892.53;7358533;19;20629;-66
2023/08/03 07:40:20;;;;;;;3.10;0.50;;;;;;;17.66;82.54;99898.09;7356826;19;21021;-65
2023/08/03 07:42:47;;;;;;;4.47;0.60;;;;;;;17.65;82.56;99901.81;7365357;19;20014;-64
2023/08/03 07:45:14;;;;;;;5.90;0.63;;;;;;;17.71;82.26;99913.41;7365266;19;20679;-66
2023/08/03 07:48:01;;;;;;;6.80;0.70;;;;;;;17.86;82.82;99912.00;7365663;19;20003;-65
2023/08/03 07:50:28;;;;;;;5.18;0.60;;;;;;;18.21;81.54;99919.34;7366468;19;20010;-65
2023/08/03 07:52:55;;;;;;;4.22;0.50;;;;;;;18.39;78.58;99920.09;7363774;19;20042;-67
2023/08/03 07:55:22;;;;;;;5.03;0.60;;;;;;;18.43;78.16;99930.34;7361844;19;20425;-67
2023/08/03 07:57:49;;;;;;;2.53;0.50;;;;;;;18.42;78.91;99936.69;7366802;19;20018;-67
2023/08/03 08:00:17;;;;;;;3.05;0.93;;;;;;;18.38;78.86;99942.47;7362727;19;20583;-67
2023/08/03 08:02:44;;;;;;;4.18;0.60;;;;;;;18.28;78.20;99938.72;7368276;19;20010;-67
2023/08/03 08:05:11;;;;;;;3.22;0.60;;;;;;;18.24;78.66;99940.19;7363481;19;20010;-67
2023/08/03 08:07:38;;;;;;;3.45;0.57;;;;;;;18.21;78.69;99949.47;7366603;19;20018;-66
2023/08/03 08:10:07;;;;;;;4.30;0.85;;;;;;;18.18;78.76;99955.25;7359959;19;20380;-65
2023/08/03 08:12:34;;;;;;;2.97;0.60;;;;;;;18.06;78.09;99957.03;7366777;19;20023;-66
2023/08/03 08:15:01;;;;;;;2.50;0.45;;;;;;;18.12;77.65;99948.16;7363401;19;20086;-66
2023/08/03 08:17:28;;;;;;;2.88;0.50;;;;;;;18.33;76.90;99961.00;7366132;19;20015;-66
2023/08/03 08:19:59;;;;;;;2.50;0.50;;;;;;;18.45;75.92;99954.88;7363806;19;20015;-66
2023/08/03 08:22:26;;;;;;;3.05;0.43;;;;;;;18.44;76.37;99956.72;7361646;19;20015;-65
2023/08/03 08:24:53;;;;;;;3.30;0.40;;;;;;;18.39;76.97;99973.38;7354155;19;20010;-65
2023/08/03 08:27:21;;;;;;;4.68;0.40;;;;;;;18.34;76.27;99967.94;7362768;19;20049;-66
2023/08/03 08:29:48;;;;;;;2.00;0.50;;;;;;;18.34;77.60;99972.44;7359313;19;21148;-66
2023/08/03 08:32:15;;;;;;;3.75;0.43;;;;;;;18.33;77.97;99973.50;7366901;19;20019;-66
2023/08/03 08:34:43;;;;;;;5.30;0.60;;;;;;;18.38;77.11;99979.78;7363632;19;20074;-66
2023/08/03 08:37:10;;;;;;;2.45;0.32;;;;;;;18.38;75.77;99973.63;7366099;19;21033;-67
2023/08/03 08:39:37;;;;;;;2.38;0.50;;;;;;;18.34;75.09;99973.25;7357576;19;20973;-66
2023/08/03 08:42:14;;;;;;;2.58;0.50;;;;;;;18.37;75.44;99972.00;7365584;19;20034;-66
2023/08/03 08:44:42;;;;;;;4.35;0.50;;;;;;;18.38;76.30;99970.97;7361781;19;20698;-65
2023/08/03 08:47:09;;;;;;;3.17;0.50;;;;;;;18.42;76.85;99979.31;7362055;19;20064;-65
2023/08/03 08:49:36;;;;;;;5.60;0.73;;;;;;;18.48;77.49;99987.22;7364385;19;21046;-66
2023/08/03 08:52:08;;;;;;;3.85;0.60;;;;;;;18.54;77.81;99990.88;7363742;19;20030;-66
2023/08/03 08:54:37;;;;;;;5.32;0.60;;;;;;;18.64;75.92;99991.16;7359868;19;20060;-65
2023/08/03 08:57:07;;;;;;;5.03;0.50;;;;;;;18.68;76.15;99990.47;7363755;19;20018;-65
2023/08/03 08:59:56;;;;;;;3.55;0.60;;;;;;;18.73;75.86;99997.78;7363423;19;20019;-66
2023/08/03 09:02:25;;;;;;;3.33;0.60;;;;;;;18.73;75.51;100006.59;7364839;19;20945;-65
2023/08/03 09:04:52;;;;;;;2.55;0.50;;;;;;;18.70;75.03;100015.03;7363956;19;20027;-66
2023/08/03 09:07:20;;;;;;;3.40;0.60;;;;;;;18.69;75.32;100005.41;7362014;19;21006;-65
2023/08/03 09:09:47;;;;;;;7.93;0.70;;;;;;;18.70;75.20;100012.38;7358343;19;21619;-67
2023/08/03 09:12:27;;;;;;;5.70;0.50;;;;;;;18.87;75.74;100011.75;7361038;19;20085;-66
2023/08/03 09:14:58;;;;;;;1.73;0.38;;;;;;;19.54;74.99;100015.84;7362071;19;20111;-67
2023/08/03 09:17:26;;;;;;;4.30;0.60;;;;;;;20.76;71.55;100029.94;7364366;19;20507;-67
2023/08/03 09:19:54;;;;;;;4.25;0.40;;;;;;;21.78;64.09;100027.94;7360412;19;20010;-67
2023/08/03 09:22:26;;;;;;;3.90;0.30;;;;;;;21.70;62.53;100039.06;7362922;19;20038;-65
2023/08/03 09:25:14;;;;;;;3.25;0.50;;;;;;;21.16;64.56;100036.06;7355968;19;20026;-67
2023/08/03 09:28:01;;;;;;;2.13;0.30;;;;;;;20.74;64.96;100038.22;7359379;19;20022;-66
2023/08/03 09:30:49;;;;;;;2.47;0.40;;;;;;;20.39;66.09;100045.53;7362735;19;20033;-66
2023/08/03 09:33:19;;;;;;;2.58;0.55;;;;;;;20.18;66.85;100036.25;7361147;19;20029;-66
2023/08/03 09:36:05;;;;;;;3.60;0.40;;;;;;;20.10;68.05;100039.28;7360483;19;20035;-66
2023/08/03 09:38:32;;;;;;;1.17;0.37;;;;;;;20.05;67.19;100045.34;7362478;19;20620;-67
2023/08/03 09:40:59;;;;;;;4.70;0.40;;;;;;;19.96;66.18;100048.59;7356016;19;20056;-67
2023/08/03 09:43:27;;;;;;;0.68;0.30;;;;;;;19.86;67.54;100041.13;7363090;19;20024;-67
2023/08/03 09:45:58;;;;;;;3.35;0.45;;;;;;;19.87;66.53;100037.44;7358075;19;20023;-67
2023/08/03 09:48:26;;;;;;;4.38;0.32;;;;;;;19.89;66.38;100042.56;7363897;19;20015;-66
2023/08/03 09:50:55;;;;;;;2.05;0.40;;;;;;;19.91;66.47;100051.94;7361197;19;20472;-68
2023/08/03 09:53:29;;;;;;;1.20;0.32;;;;;;;19.90;67.00;100045.00;7363445;19;20024;-66
2023/08/03 09:56:03;;;;;;;1.05;0.40;;;;;;;19.94;67.41;100053.34;7355432;19;20022;-66
2023/08/03 09:58:42;;;;;;;2.95;0.40;;;;;;;19.94;67.96;100048.00;7362722;19;20572;-66
2023/08/03 10:01:12;;;;;;;1.77;0.35;;;;;;;19.95;68.72;100049.63;7362753;19;20022;-65
2023/08/03 10:03:44;;;;;;;1.45;0.30;;;;;;;19.99;65.10;100058.81;7359548;19;20018;-66
2023/08/03 10:06:16;;;;;;;3.28;0.30;;;;;;;19.96;63.33;100057.41;7363584;19;20006;-66
2023/08/03 10:08:48;;;;;;;1.67;0.30;;;;;;;19.96;64.26;100061.94;7358911;19;20030;-66
2023/08/03 10:11:15;;;;;;;0.98;0.30;;;;;;;19.90;64.01;100060.22;7356984;19;20039;-66
2023/08/03 10:13:48;;;;;;;1.60;0.30;;;;;;;19.91;65.66;100057.28;7358949;19;20018;-65
2023/08/03 10:16:17;;;;;;;4.28;0.38;;;;;;;20.01;66.63;100064.75;7359446;19;20728;-65
2023/08/03 10:18:45;;;;;;;2.22;0.40;;;;;;;20.12;64.73;100071.91;7361290;19;20024;-66
2023/08/03 10:21:26;;;;;;;2.85;0.30;;;;;;;20.12;65.26;100065.75;7360929;19;20022;-66
2023/08/03 10:24:15;;;;;;;1.25;0.38;;;;;;;20.05;65.62;100077.38;7357968;19;20022;-66
2023/08/03 10:26:43;;;;;;;0.88;0.30;;;;;;;20.01;65.15;100072.75;7357796;19;20038;-66
2023/08/03 10:29:10;;;;;;;1.70;0.30;;;;;;;19.99;64.33;100078.31;7357871;19;20036;-67
2023/08/03 10:32:02;;;;;;;1.67;0.40;;;;;;;19.94;64.47;100082.72;7359670;19;20097;-66
2023/08/03 10:34:30;;;;;;;1.57;0.30;;;;;;;19.92;64.01;100082.13;7360804;19;20169;-66
2023/08/03 10:36:57;;;;;;;1.05;0.30;;;;;;;19.98;64.84;100082.03;7362441;19;20006;-66
2023/08/03 10:39:46;;;;;;;2.35;0.65;;;;;;;20.08;62.37;100090.28;7356954;19;20014;-65
2023/08/03 10:42:23;;;;;;;1.38;0.25;;;;;;;20.12;59.49;100095.94;7362946;19;20022;-66
2023/08/03 10:44:51;;;;;;;1.73;0.30;;;;;;;20.11;59.43;100101.53;7359723;19;20021;-70
2023/08/03 10:47:29;;;;;;;2.00;0.40;;;;;;;20.10;60.21;100103.41;7359551;19;20044;-67
2023/08/03 10:49:58;;;;;;;0.60;0.20;;;;;;;20.10;60.80;100103.41;7358488;19;20030;-66
2023/08/03 10:52:28;;;;;;;2.95;0.28;;;;;;;20.08;60.26;100106.28;7362005;19;20439;-66
2023/08/03 10:54:57;;;;;;;2.47;0.38;;;;;;;20.06;60.38;100115.59;7356348;19;20014;-66
2023/08/03 10:57:29;;;;;;;0.60;0.30;;;;;;;20.02;61.32;100120.56;7360235;19;20094;-68
2023/08/03 11:00:03;;;;;;;2.33;0.30;;;;;;;19.99;60.22;100113.03;7358282;19;20862;-66
2023/08/03 11:02:31;;;;;;;2.35;0.30;;;;;;;19.96;60.71;100116.16;7361990;19;20472;-67
2023/08/03 11:05:04;;;;;;;0.68;0.20;;;;;;;19.98;59.01;100115.94;7344981;19;20022;-65
2023/08/03 11:07:42;;;;;;;1.10;0.30;;;;;;;20.01;59.50;100121.63;7359889;19;20021;-68
2023/08/03 11:10:15;;;;;;;1.17;0.20;;;;;;;20.05;58.74;100122.81;7347347;19;20130;-65
2023/08/03 11:12:43;;;;;;;;;;;;;;;20.11;58.35;100120.25;7360866;19;20047;-67
2023/08/03 11:15:16;;;;;;;1.58;0.35;;;;;;;20.15;58.56;100124.88;7357744;19;19961;-67
2023/08/03 11:17:49;;;;;;;1.08;0.28;;;;;;;20.13;58.90;100124.28;7358357;19;20006;-65
2023/08/03 11:20:18;;;;;;;1.13;0.22;;;;;;;20.11;59.65;100130.94;7355944;19;20017;-66
2023/08/03 11:22:46;;;;;;;1.90;0.30;;;;;;;20.12;59.71;100135.22;7360971;19;20018;-66
2023/08/03 11:25:17;;;;;;;1.20;0.30;;;;;;;20.16;59.25;100141.75;7352260;19;20022;-67
2023/08/03 11:27:46;;;;;;;3.45;0.30;;;;;;;20.18;59.20;100136.97;7355741;19;20018;-65
2023/08/03 11:30:13;;;;;;;2.15;0.40;;;;;;;20.31;58.06;100150.94;7354635;19;20021;-65
2023/08/03 11:32:40;;;;;;;1.80;0.32;;;;;;;20.39;57.97;100149.75;7361947;19;21755;-66
2023/08/03 11:35:10;;;;;;;1.67;0.20;;;;;;;20.42;58.79;100151.97;7357275;19;20007;-65
2023/08/03 11:37:38;;;;;;;0.98;0.20;;;;;;;20.43;57.24;100156.25;7356655;19;20048;-65